Time;durP1;ratioP1;P1;durP2;ratioP2;P2;SDS_P1;SDS_P2;PMS_P1;PMS_P2;Temp;Humidity;BMP_temperature;BMP_pressure;BME280_temperature;BME280_humidity;BME280_pressure;Samples;Min_cycle;Max_cycle;Signal;HPM_P1;HPM_P2
2022/04/09 00:02:18;;;;;;;11.63;2.20;;;3.00;99.90;;;1.44;100.00;98909.38;4856975;28;20033;-79
2022/04/09 00:04:44;;;;;;;19.58;1.95;;;3.00;99.90;;;1.43;100.00;98906.88;4882109;28;20060;-78
2022/04/09 00:07:15;;;;;;;16.35;2.10;;;3.10;99.90;;;1.43;100.00;98906.88;4866490;28;20109;-78
2022/04/09 00:09:41;;;;;;;15.68;1.92;;;3.00;99.90;;;1.42;100.00;98913.78;4852774;28;20395;-78
2022/04/09 00:12:08;;;;;;;11.50;1.85;;;3.00;99.90;;;1.44;100.00;98914.56;4902175;28;20034;-78
2022/04/09 00:14:34;;;;;;;9.02;1.55;;;;;;;1.42;100.00;98924.16;4852739;28;20038;-78
2022/04/09 00:17:08;;;;;;;13.48;1.55;;;3.00;99.90;;;1.40;100.00;98919.94;4866185;28;20034;-80
2022/04/09 00:19:36;;;;;;;8.75;1.67;;;3.00;99.90;;;1.36;100.00;98919.22;4865348;28;20028;-79
2022/04/09 00:22:04;;;;;;;12.85;1.40;;;3.00;99.90;;;1.39;100.00;98921.69;4881807;28;20049;-79
2022/04/09 00:24:38;;;;;;;9.93;1.70;;;3.00;99.90;;;1.40;100.00;98922.53;4868309;28;20047;-79
2022/04/09 00:27:05;;;;;;;13.75;1.60;;;3.00;99.90;;;1.39;100.00;98919.09;4900157;28;20105;-79
2022/04/09 00:29:30;;;;;;;9.18;1.45;;;3.00;99.90;;;1.38;100.00;98921.75;4919965;28;20052;-80
2022/04/09 00:31:56;;;;;;;9.88;1.55;;;3.00;99.90;;;1.38;100.00;98929.53;4905170;28;20549;-80
2022/04/09 00:34:31;;;;;;;10.85;1.38;;;3.00;99.90;;;1.39;100.00;98929.47;4859151;28;20114;-79
2022/04/09 00:36:57;;;;;;;14.35;1.88;;;3.00;99.90;;;1.39;100.00;98931.22;4888987;28;20117;-79
2022/04/09 00:39:24;;;;;;;7.60;1.30;;;3.00;99.90;;;1.39;100.00;98932.06;4862140;28;20061;-79
2022/04/09 00:41:58;;;;;;;13.43;1.45;;;3.00;99.90;;;1.41;100.00;98943.22;4881122;28;20562;-80
2022/04/09 00:44:24;;;;;;;9.27;1.50;;;3.00;99.90;;;1.38;100.00;98938.16;4890285;28;20434;-79
2022/04/09 00:46:50;;;;;;;5.88;2.00;;;3.00;99.90;;;1.36;100.00;98941.69;4899694;28;20120;-79
2022/04/09 00:49:17;;;;;;;7.80;1.38;;;3.00;99.90;;;1.36;100.00;98942.56;4903439;28;20055;-79
2022/04/09 00:51:50;;;;;;;7.85;1.42;;;3.00;99.90;;;1.34;100.00;98943.50;4887130;28;20035;-79
2022/04/09 00:54:31;;;;;;;10.60;1.50;;;3.00;99.90;;;1.33;100.00;98953.03;4888949;28;20038;-80
2022/04/09 00:57:07;;;;;;;8.77;1.90;;;2.90;99.90;;;1.34;100.00;98946.09;4867425;28;20033;-80
2022/04/09 00:59:49;;;;;;;8.93;1.58;;;2.90;99.90;;;1.31;100.00;98944.47;4865408;28;20043;-78
2022/04/09 01:02:15;;;;;;;9.00;1.80;;;2.90;99.90;;;1.30;100.00;98947.16;4858919;28;20983;-79
2022/04/09 01:04:44;;;;;;;12.23;2.65;;;2.90;99.90;;;1.30;100.00;98947.16;4884842;28;20049;-79
2022/04/09 01:07:20;;;;;;;14.85;2.33;;;2.90;99.90;;;1.28;100.00;98948.94;4857550;28;20075;-80
2022/04/09 01:09:46;;;;;;;15.25;2.75;;;2.90;99.90;;;1.25;100.00;98955.06;4895946;28;20042;-79
2022/04/09 01:12:23;;;;;;;15.35;2.08;;;2.90;99.90;;;1.25;100.00;98959.41;4865636;28;20027;-79
2022/04/09 01:14:49;;;;;;;22.83;2.53;;;2.90;99.90;;;1.25;100.00;98960.25;4880507;28;20039;-79
2022/04/09 01:17:15;;;;;;;11.82;2.33;;;2.90;99.90;;;1.23;100.00;98956.88;4854319;28;20030;-79
2022/04/09 01:19:50;;;;;;;14.57;2.50;;;2.80;99.90;;;1.23;100.00;98962.06;4872746;28;20027;-79
2022/04/09 01:22:15;;;;;;;13.45;2.53;;;2.80;99.90;;;1.22;100.00;98961.22;4886711;28;20038;-79
2022/04/09 01:24:41;;;;;;;12.02;2.65;;;2.90;99.90;;;1.27;100.00;98957.59;4851097;28;20043;-78
2022/04/09 01:27:08;;;;;;;19.52;3.00;;;2.90;99.90;;;1.28;100.00;98967.94;4879124;28;20196;-79
2022/04/09 01:29:43;;;;;;;17.00;2.80;;;2.90;99.90;;;1.22;100.00;98968.16;4869678;28;20041;-79
2022/04/09 01:32:10;;;;;;;10.80;2.60;;;2.80;99.90;;;1.21;100.00;98969.06;4883331;28;20046;-80
2022/04/09 01:34:43;;;;;;;18.92;2.97;;;2.90;99.90;;;1.19;100.00;98973.47;4864788;28;20047;-79
2022/04/09 01:37:09;;;;;;;19.77;2.67;;;2.80;99.90;;;1.19;100.00;98970.88;4856820;28;20322;-80
2022/04/09 01:39:35;;;;;;;13.48;2.40;;;2.80;99.90;;;1.16;100.00;98971.81;4874746;28;20371;-78
2022/04/09 01:42:01;;;;;;;5.85;2.15;;;2.80;99.90;;;1.15;100.00;98967.53;4897675;28;20090;-80
2022/04/09 01:44:27;;;;;;;8.70;2.20;;;2.80;99.90;;;1.16;100.00;98970.97;4868789;28;20400;-80
2022/04/09 01:47:01;;;;;;;6.68;2.03;;;;;;;1.17;100.00;98988.22;4872135;28;20065;-79
2022/04/09 01:49:26;;;;;;;10.80;3.22;;;2.80;99.90;;;1.15;100.00;98972.72;4888112;28;20046;-80
2022/04/09 01:51:52;;;;;;;14.90;2.33;;;2.80;99.90;;;1.12;100.00;98979.75;4850089;28;20034;-79
2022/04/09 01:54:18;;;;;;;13.00;1.90;;;2.80;99.90;;;1.15;100.00;98987.44;4870146;28;20127;-80
2022/04/09 01:56:44;;;;;;;12.65;2.67;;;2.80;99.90;;;1.13;100.00;98990.06;4857416;28;20443;-78
2022/04/09 01:59:14;;;;;;;14.93;2.75;;;2.80;99.90;;;1.14;100.00;98998.69;4880603;28;20054;-80
2022/04/09 02:01:40;;;;;;;14.32;2.55;;;2.80;99.90;;;1.11;100.00;98999.66;4874262;28;20055;-79
2022/04/09 02:04:07;;;;;;;17.13;2.63;;;2.70;99.90;;;1.11;100.00;99004.00;4868687;28;20066;-80
2022/04/09 02:06:34;;;;;;;14.63;2.47;;;2.80;99.90;;;1.10;100.00;99008.34;4870329;28;20027;-79
2022/04/09 02:09:03;;;;;;;16.23;2.60;;;2.80;99.90;;;1.11;100.00;99014.38;4886149;28;20530;-79
2022/04/09 02:11:32;;;;;;;11.68;2.50;;;2.70;99.90;;;1.09;100.00;99008.38;4848898;28;20042;-80
2022/04/09 02:13:57;;;;;;;12.23;2.45;;;2.70;99.90;;;1.08;100.00;99023.09;4878530;28;20062;-80
2022/04/09 02:16:24;;;;;;;17.23;2.85;;;2.70;99.90;;;1.05;100.00;99015.41;4884358;28;20054;-79
2022/04/09 02:18:50;;;;;;;22.10;2.55;;;2.70;99.90;;;1.01;100.00;99019.84;4882968;28;20040;-80
2022/04/09 02:21:15;;;;;;;17.35;2.65;;;2.70;99.90;;;0.99;100.00;99024.28;4915498;28;20037;-80
2022/04/09 02:23:50;;;;;;;11.85;2.25;;;2.60;99.90;;;0.95;100.00;99021.81;4899370;28;20043;-79
2022/04/09 02:26:16;;;;;;;15.43;2.92;;;2.60;99.90;;;0.93;100.00;99021.88;4857502;28;20445;-80
2022/04/09 02:28:46;;;;;;;16.50;3.30;;;2.60;99.90;;;0.92;100.00;99021.94;4864389;28;20031;-79
2022/04/09 02:31:17;;;;;;;19.15;3.28;;;2.60;99.90;;;0.92;100.00;99030.53;4868439;28;20064;-79
2022/04/09 02:33:44;;;;;;;20.08;2.72;;;2.60;99.90;;;0.92;100.00;99027.94;4861388;28;20034;-79
2022/04/09 02:36:12;;;;;;;18.60;3.85;;;2.60;99.90;;;0.92;100.00;99040.91;4860914;28;20133;-80
2022/04/09 02:38:44;;;;;;;23.40;2.70;;;2.60;99.90;;;0.95;100.00;99046.00;4861762;28;20633;-80
2022/04/09 02:41:11;;;;;;;17.08;3.45;;;2.50;99.90;;;0.91;100.00;99044.41;4866313;28;20024;-79
2022/04/09 02:43:40;;;;;;;12.05;3.20;;;2.60;99.90;;;0.92;100.00;99047.84;4868297;28;20043;-78
2022/04/09 02:46:11;;;;;;;13.80;3.78;;;2.60;99.90;;;0.91;100.00;99047.00;4867184;28;20027;-80
2022/04/09 02:48:37;;;;;;;16.30;3.05;;;2.50;99.90;;;0.88;100.00;99051.44;4878754;28;20024;-79
2022/04/09 02:51:03;;;;;;;14.05;2.58;;;2.50;99.90;;;0.85;100.00;99049.81;4857093;28;20590;-79
2022/04/09 02:53:28;;;;;;;24.42;3.15;;;2.50;99.90;;;0.84;100.00;99050.69;4906433;28;20038;-79
2022/04/09 02:55:54;;;;;;;10.93;3.10;;;2.50;99.90;;;0.87;100.00;99058.38;4884473;28;20023;-79
2022/04/09 02:58:20;;;;;;;19.40;3.25;;;2.50;99.90;;;0.90;100.00;99050.47;4887460;28;20638;-80
2022/04/09 03:00:54;;;;;;;15.30;3.28;;;2.60;99.90;;;0.93;100.00;99059.88;4908826;28;20053;-80
2022/04/09 03:03:19;;;;;;;25.70;3.13;;;2.60;99.90;;;0.94;100.00;99064.19;4866486;28;20054;-79
2022/04/09 03:05:45;;;;;;;21.45;3.28;;;2.60;99.90;;;0.94;100.00;99070.22;4850913;28;20527;-79
2022/04/09 03:08:11;;;;;;;14.43;3.35;;;2.60;99.90;;;0.90;100.00;99071.22;4874814;28;20069;-79
2022/04/09 03:10:46;;;;;;;14.13;2.88;;;2.50;99.90;;;0.89;100.00;99076.47;4864882;28;20075;-80
2022/04/09 03:13:12;;;;;;;14.18;2.85;;;2.50;99.90;;;0.85;100.00;99077.47;4865208;28;20027;-79
2022/04/09 03:15:38;;;;;;;16.70;3.72;;;2.50;99.90;;;0.84;100.00;99075.75;4857502;28;20043;-79
2022/04/09 03:18:14;;;;;;;11.27;2.40;;;2.50;99.90;;;0.77;100.00;99075.13;4872317;28;20162;-79
2022/04/09 03:20:40;;;;;;;13.07;2.70;;;2.40;99.90;;;0.73;100.00;99076.94;4862925;28;20035;-81
2022/04/09 03:23:06;;;;;;;14.40;2.28;;;2.40;99.90;;;0.71;100.00;99094.28;4874350;28;20031;-80
2022/04/09 03:25:32;;;;;;;13.05;2.67;;;2.40;99.90;;;0.67;100.00;99090.13;4896537;28;20102;-79
2022/04/09 03:28:02;;;;;;;25.85;2.85;;;2.30;99.90;;;0.67;100.00;99091.84;4888954;28;20028;-79
2022/04/09 03:30:28;;;;;;;11.73;2.63;;;2.30;99.90;;;0.62;100.00;99094.59;4851368;28;20109;-79
2022/04/09 03:32:54;;;;;;;17.95;3.03;;;2.30;99.90;;;0.58;100.00;99093.84;4867239;28;20055;-78
2022/04/09 03:35:21;;;;;;;21.70;3.40;;;2.20;99.90;;;0.57;100.00;99096.50;4874896;28;20034;-80
2022/04/09 03:37:47;;;;;;;20.33;3.00;;;2.20;99.90;;;0.56;100.00;99102.53;4867610;28;24056;-79
2022/04/09 03:40:19;;;;;;;22.73;3.35;;;3.80;99.90;;;0.53;100.00;99098.31;4855301;28;20131;-78
2022/04/09 03:42:44;;;;;;;17.10;3.10;;;2.20;99.90;;;0.48;100.00;99102.81;4876773;28;20043;-78
2022/04/09 03:45:11;;;;;;;13.52;2.92;;;2.20;99.90;;;0.51;100.00;99112.22;4885163;28;20046;-78
2022/04/09 03:47:37;;;;;;;18.55;3.58;;;2.20;99.90;;;0.47;100.00;99114.03;4865554;28;20087;-79
2022/04/09 03:50:10;;;;;;;13.20;2.90;;;2.10;99.90;;;0.46;100.00;99107.19;4861818;28;20043;-80
2022/04/09 03:52:36;;;;;;;18.45;2.90;;;2.10;99.90;;;0.45;100.00;99110.66;4861481;28;20132;-79
2022/04/09 03:55:03;;;;;;;16.98;4.13;;;2.10;99.90;;;0.47;100.00;99118.38;4880996;28;20047;-79
2022/04/09 03:57:30;;;;;;;26.75;3.30;;;2.10;99.90;;;0.45;100.00;99108.06;4843715;28;20099;-79
2022/04/09 03:59:57;;;;;;;22.98;3.50;;;2.10;99.90;;;0.42;100.00;99115.94;4857355;28;20035;-78
2022/04/09 04:02:30;;;;;;;19.92;3.17;;;2.10;99.90;;;0.45;100.00;99128.78;4896226;28;20030;-79
2022/04/09 04:05:02;;;;;;;20.55;3.35;;;2.10;99.90;;;0.43;100.00;99134.91;4881571;28;20051;-78
2022/04/09 04:07:31;;;;;;;10.65;2.90;;;2.10;99.90;;;0.44;100.00;99142.63;4866828;28;20119;-79
2022/04/09 04:10:10;;;;;;;8.20;2.65;;;2.10;99.90;;;0.45;100.00;99140.88;4868953;28;20575;-80
2022/04/09 04:12:43;;;;;;;18.17;2.85;;;2.10;99.90;;;0.44;100.00;99145.22;4885815;28;20049;-79
2022/04/09 04:15:15;;;;;;;23.25;3.63;;;2.10;99.90;;;0.44;100.00;99149.56;4867136;28;20019;-79
2022/04/09 04:17:44;;;;;;;20.48;3.05;;;2.10;99.90;;;0.44;100.00;99152.16;4860532;28;20023;-79
2022/04/09 04:20:14;;;;;;;19.88;3.97;;;2.10;99.90;;;0.42;100.00;99152.19;4887943;28;20027;-80
2022/04/09 04:22:43;;;;;;;17.85;2.80;;;2.10;99.90;;;0.46;100.00;99163.31;4875734;28;20034;-80
2022/04/09 04:25:10;;;;;;;22.42;3.38;;;2.10;99.90;;;0.49;100.00;99161.47;4876238;28;20038;-79
2022/04/09 04:27:50;;;;;;;25.88;3.55;;;2.10;99.90;;;0.55;100.00;99173.38;4870252;28;20039;-79
2022/04/09 04:30:17;;;;;;;19.83;3.33;;;2.10;99.90;;;0.57;100.00;99176.78;4883485;28;20039;-79
2022/04/09 04:32:44;;;;;;;21.48;3.20;;;2.20;99.90;;;0.64;100.00;99180.03;4859587;28;20130;-79
2022/04/09 04:35:16;;;;;;;22.85;3.75;;;;;;;0.70;100.00;99180.69;4878167;28;20026;-80
2022/04/09 04:37:47;;;;;;;21.98;2.83;;;2.30;99.90;;;0.76;100.00;99184.84;4875009;28;20034;-79
2022/04/09 04:40:19;;;;;;;18.85;3.42;;;2.30;99.90;;;0.77;100.00;99186.53;4881919;28;20643;-79
2022/04/09 04:42:45;;;;;;;22.17;3.05;;;2.40;99.90;;;0.88;100.00;99194.81;4865598;28;21282;-78
2022/04/09 04:45:12;;;;;;;20.10;2.85;;;2.40;99.90;;;0.93;100.00;99197.25;4864021;28;20047;-78
2022/04/09 04:47:48;;;;;;;20.38;3.45;;;2.50;99.90;;;1.02;100.00;99195.22;4883593;28;20050;-80
2022/04/09 04:50:17;;;;;;;18.42;3.35;;;2.50;99.90;;;1.06;100.00;99201.16;4900727;28;20065;-78
2022/04/09 04:52:44;;;;;;;23.25;3.42;;;2.60;99.90;;;1.18;100.00;99200.75;4862933;28;20117;-79
2022/04/09 04:55:15;;;;;;;12.25;2.53;;;2.60;99.90;;;1.32;100.00;99213.28;4858172;28;20043;-80
2022/04/09 04:57:52;;;;;;;22.30;3.10;;;2.70;99.90;;;1.42;100.00;99212.06;4878297;28;20035;-79
2022/04/09 05:00:24;;;;;;;20.48;2.88;;;2.80;99.90;;;1.54;100.00;99215.16;4872094;28;20036;-79
2022/04/09 05:02:59;;;;;;;22.00;3.20;;;3.00;99.90;;;1.96;100.00;99219.75;4863396;28;20102;-79
2022/04/09 05:05:26;;;;;;;19.63;3.33;;;3.40;99.90;;;2.96;100.00;99221.22;4860298;28;20114;-79
2022/04/09 05:07:53;;;;;;;15.85;2.63;;;3.70;99.90;;;3.43;100.00;99221.88;4892091;28;20050;-79
2022/04/09 05:10:27;;;;;;;28.33;3.50;;;4.20;99.90;;;4.85;95.10;99226.94;4878817;28;20496;-80
2022/04/09 05:12:54;;;;;;;16.63;3.10;;;4.90;99.90;;;6.48;86.55;99224.03;4853280;28;20032;-79
2022/04/09 05:15:20;;;;;;;14.27;2.67;;;5.50;99.90;;;6.57;79.74;99233.16;4879611;28;20038;-79
2022/04/09 05:17:46;;;;;;;18.85;2.92;;;6.00;99.90;;;7.47;75.05;99237.72;4903441;28;20027;-80
2022/04/09 05:20:21;;;;;;;20.10;3.10;;;6.40;99.90;;;7.88;71.32;99246.72;4873290;28;20456;-79
2022/04/09 05:22:47;;;;;;;14.10;2.63;;;7.30;99.90;;;10.63;64.73;99250.06;4846608;28;20031;-79
2022/04/09 05:25:16;;;;;;;24.75;3.08;;;;;;;12.52;57.43;99258.03;4867888;28;20195;-79
2022/04/09 05:27:49;;;;;;;16.15;2.70;;;9.30;99.90;;;13.84;52.62;99257.13;4915664;28;20042;-77
2022/04/09 05:30:15;;;;;;;13.45;2.90;;;10.20;99.90;;;14.98;49.16;99282.72;4885329;28;20045;-76
2022/04/09 05:32:41;;;;;;;19.98;3.20;;;11.00;99.90;;;15.85;47.48;99285.66;4896717;28;20042;-80
2022/04/09 05:35:09;;;;;;;19.30;3.10;;;11.70;99.90;;;16.31;44.73;99300.84;4946134;28;20529;-79
2022/04/09 05:37:46;;;;;;;17.25;3.03;;;;;;;16.95;43.55;99311.72;4875671;28;20074;-80
2022/04/09 05:40:12;;;;;;;16.92;2.78;;;;;;;15.79;43.57;99319.75;4860267;28;20035;-78
2022/04/09 05:42:44;;;;;;;19.13;2.65;;;12.40;99.90;;;14.39;45.18;99332.91;4879225;28;20494;-82
2022/04/09 05:45:13;;;;;;;17.70;2.70;;;11.70;99.90;;;11.23;52.42;99336.22;4860831;28;20054;-81
2022/04/09 05:47:47;;;;;;;32.05;3.03;;;;;;;9.60;56.84;99338.50;4873127;28;20042;-82
2022/04/09 05:50:15;;;;;;;16.20;2.42;;;9.70;99.90;;;8.32;60.74;99350.75;4887832;28;20057;-81
2022/04/09 05:52:42;;;;;;;19.60;2.90;;;9.00;99.90;;;7.57;64.27;99364.63;4854866;28;22319;-82
2022/04/09 05:55:08;;;;;;;16.75;3.05;;;8.60;99.90;;;9.68;63.06;99361.66;4880982;28;20043;-81
2022/04/09 05:57:43;;;;;;;27.45;2.90;;;9.10;99.90;;;13.86;52.86;99345.16;4864547;28;20031;-81
2022/04/09 06:00:11;;;;;;;20.05;2.67;;;10.00;99.90;;;13.91;48.76;99345.66;4866541;28;20042;-81
2022/04/09 06:02:44;;;;;;;20.83;2.60;;;10.40;99.90;;;12.33;51.34;99352.78;4849402;28;20101;-81
2022/04/09 06:05:11;;;;;;;18.25;2.75;;;10.30;99.90;;;11.59;53.59;99350.31;4866355;28;20051;-80
2022/04/09 06:07:37;;;;;;;26.13;3.10;;;10.30;99.90;;;12.02;53.34;99360.38;4851655;28;20050;-81
2022/04/09 06:10:14;;;;;;;17.08;2.53;;;10.40;99.90;;;12.36;53.04;99365.78;4860973;28;20027;-81
2022/04/09 06:12:41;;;;;;;23.15;3.17;;;10.50;99.90;;;13.06;51.10;99369.22;4866620;28;20068;-79
2022/04/09 06:15:08;;;;;;;17.67;2.85;;;;;;;13.03;50.44;99380.88;4846182;28;20026;-80
2022/04/09 06:17:39;;;;;;;25.15;2.95;;;10.80;99.90;;;12.44;51.81;99373.97;4958382;28;20105;-78
2022/04/09 06:20:08;;;;;;;19.25;3.05;;;10.70;99.90;;;11.84;52.17;99381.03;4891534;28;20101;-79
2022/04/09 06:22:33;;;;;;;26.98;3.15;;;10.40;99.90;;;10.02;55.50;99387.44;4863787;28;20039;-78
2022/04/09 06:25:00;;;;;;;18.48;2.58;;;9.90;99.90;;;9.00;59.80;99392.16;4851850;28;20045;-79
2022/04/09 06:27:39;;;;;;;25.38;2.80;;;9.60;99.90;;;10.53;59.06;99407.78;4845510;28;20050;-78
2022/04/09 06:30:10;;;;;;;14.68;2.50;;;;;;;13.17;53.36;99419.41;4867111;28;20036;-77
2022/04/09 06:32:39;;;;;;;22.50;2.85;;;10.60;99.90;;;13.95;49.00;99421.16;4861164;28;20504;-80
2022/04/09 06:35:05;;;;;;;23.63;3.15;;;;;;;13.39;48.85;99423.06;4865710;28;20046;-78
2022/04/09 06:37:32;;;;;;;20.20;2.67;;;11.50;99.90;;;12.46;51.50;99435.41;4900672;28;20055;-77
2022/04/09 06:40:18;;;;;;;14.38;2.25;;;11.30;99.90;;;10.64;55.55;99430.75;4858869;28;20145;-77
2022/04/09 06:42:44;;;;;;;20.90;2.88;;;10.80;99.90;;;9.27;58.63;99442.16;4864565;28;20043;-77
2022/04/09 06:45:10;;;;;;;33.00;3.28;;;10.40;99.90;;;9.09;60.61;99448.53;4870690;28;20106;-79
2022/04/09 06:47:38;;;;;;;20.48;2.75;;;9.90;99.90;;;8.57;62.69;99447.22;4869659;28;20077;-79
2022/04/09 06:50:12;;;;;;;20.30;3.25;;;9.50;99.90;;;7.97;65.25;99459.34;4876589;28;20027;-77
2022/04/09 06:52:40;;;;;;;17.08;2.60;;;9.20;99.90;;;7.69;66.36;99454.81;4879723;28;22204;-77
2022/04/09 06:55:16;;;;;;;22.35;3.30;;;8.90;99.90;;;7.49;68.35;99458.47;4872319;28;20407;-78
2022/04/09 06:57:43;;;;;;;19.45;2.22;;;8.80;99.90;;;7.78;67.76;99461.31;4871354;28;20031;-78
2022/04/09 07:00:12;;;;;;;16.92;3.38;;;8.70;99.90;;;7.39;67.82;99452.91;4865682;28;20122;-78
2022/04/09 07:02:47;;;;;;;15.07;2.33;;;8.50;99.90;;;7.18;69.38;99459.28;4869591;28;20567;-78
2022/04/09 07:05:13;;;;;;;18.30;2.95;;;8.30;99.90;;;6.99;70.50;99460.25;4888701;28;20172;-78
2022/04/09 07:07:39;;;;;;;18.30;3.03;;;8.20;99.90;;;6.71;71.31;99466.03;4868942;28;20027;-78
2022/04/09 07:10:11;;;;;;;23.33;2.60;;;8.10;99.90;;;6.70;71.51;99453.06;4884527;28;20027;-77
2022/04/09 07:12:38;;;;;;;20.23;2.45;;;7.80;99.90;;;6.47;72.02;99459.44;4870372;28;20121;-78
2022/04/09 07:15:06;;;;;;;21.42;2.83;;;7.80;99.90;;;6.50;72.39;99462.75;4863072;28;20041;-77
2022/04/09 07:17:32;;;;;;;20.52;2.75;;;7.80;99.90;;;6.77;72.80;99457.06;4860982;28;20054;-79
2022/04/09 07:20:04;;;;;;;24.00;2.65;;;7.80;99.90;;;6.63;73.55;99472.59;4905750;28;20031;-83
2022/04/09 07:22:34;;;;;;;20.98;2.95;;;7.80;99.90;;;6.77;74.13;99465.75;4871003;28;20952;-78
2022/04/09 07:25:00;;;;;;;23.40;2.60;;;7.90;99.90;;;6.97;73.29;99467.31;4840614;28;20038;-79
2022/04/09 07:27:39;;;;;;;17.20;2.70;;;8.00;99.90;;;7.12;72.68;99470.91;4870858;28;20020;-78
2022/04/09 07:30:12;;;;;;;21.15;2.92;;;8.40;99.90;;;9.80;68.89;99471.25;4880244;28;20110;-79
2022/04/09 07:32:40;;;;;;;14.70;2.92;;;9.20;99.90;;;9.19;64.54;99461.00;4883400;28;20635;-79
2022/04/09 07:35:08;;;;;;;21.45;2.95;;;9.50;99.90;;;9.09;65.06;99488.75;4886826;28;20151;-78
2022/04/09 07:38:00;;;;;;;16.65;2.38;;;9.40;99.90;;;9.41;65.21;99481.53;4883703;28;20377;-76
2022/04/09 07:40:37;;;;;;;13.48;2.45;;;10.20;99.90;;;10.91;59.54;99475.44;4919637;28;21243;-77
2022/04/09 07:43:03;;;;;;;13.95;2.15;;;11.20;99.90;;;12.07;57.01;99484.03;4893961;28;20035;-78
2022/04/09 07:45:29;;;;;;;17.67;2.65;;;12.40;99.90;;;14.74;51.51;99480.94;4893684;28;20043;-79
2022/04/09 07:47:58;;;;;;;17.75;2.30;;;14.00;99.90;;;16.61;47.36;99512.38;4860536;28;20041;-77
2022/04/09 07:50:28;;;;;;;19.00;2.80;;;15.60;99.90;;;17.69;44.11;99531.66;4883770;28;20497;-77
2022/04/09 07:52:55;;;;;;;20.73;2.70;;;16.70;99.90;;;17.66;43.31;99534.59;4892103;28;21365;-77
2022/04/09 07:55:21;;;;;;;12.70;2.35;;;17.20;97.60;;;17.75;41.51;99549.72;4905014;28;20105;-78
2022/04/09 07:57:50;;;;;;;16.20;2.55;;;17.60;97.20;;;17.62;42.17;99544.72;4912669;28;20329;-78
2022/04/09 08:00:20;;;;;;;11.82;2.10;;;17.90;96.90;;;18.07;41.92;99553.78;4888648;28;20023;-77
2022/04/09 08:02:47;;;;;;;14.75;2.13;;;18.30;95.80;;;18.22;41.41;99568.28;4886805;28;20047;-78
2022/04/09 08:05:13;;;;;;;13.65;2.05;;;18.40;94.00;;;17.49;41.50;99575.28;4855391;28;20507;-77
2022/04/09 08:07:41;;;;;;;13.63;2.50;;;18.00;94.30;;;16.38;42.64;99580.03;4883322;28;20045;-77
2022/04/09 08:10:11;;;;;;;13.32;1.60;;;16.60;93.90;;;14.05;45.43;99569.47;4890631;28;20070;-77
2022/04/09 08:12:38;;;;;;;10.65;1.90;;;15.20;95.80;;;13.06;49.41;99572.69;4893308;28;20032;-76
2022/04/09 08:15:05;;;;;;;14.93;2.17;;;14.70;98.40;;;13.63;49.58;99582.47;4878539;28;20023;-77
2022/04/09 08:17:31;;;;;;;9.25;1.90;;;14.30;98.40;;;13.03;49.53;99575.56;4883645;28;20519;-76
2022/04/09 08:20:06;;;;;;;10.40;2.03;;;13.80;97.70;;;12.03;49.75;99588.09;4880215;28;20043;-77
2022/04/09 08:22:33;;;;;;;9.88;2.17;;;13.60;99.90;;;12.86;50.11;99596.16;4887313;28;20027;-77
2022/04/09 08:24:59;;;;;;;11.73;1.88;;;13.90;99.60;;;13.36;49.35;99598.63;4919037;28;20085;-77
2022/04/09 08:27:25;;;;;;;21.58;2.20;;;13.90;97.80;;;12.93;48.44;99605.31;4918848;28;20042;-77
2022/04/09 08:29:56;;;;;;;8.80;1.63;;;13.00;98.30;;;11.44;50.56;99596.56;4918739;28;20060;-76
2022/04/09 08:32:25;;;;;;;12.38;2.15;;;13.10;99.90;;;12.12;52.08;99608.59;4889714;28;20043;-75
2022/04/09 08:34:53;;;;;;;11.30;2.10;;;13.40;99.90;;;13.08;50.22;99613.06;4888054;28;20459;-77
2022/04/09 08:37:22;;;;;;;12.40;2.63;;;14.20;99.90;;;14.24;48.40;99621.78;4905643;28;20019;-77
2022/04/09 08:39:49;;;;;;;10.27;1.70;;;14.40;98.50;;;13.10;48.70;99624.38;4894333;28;20111;-77
2022/04/09 08:42:16;;;;;;;11.05;2.00;;;14.10;98.40;;;12.65;49.68;99622.34;4890571;28;20524;-77
2022/04/09 08:44:42;;;;;;;13.20;2.00;;;14.00;99.40;;;12.61;50.17;99633.25;4906370;28;20046;-76
2022/04/09 08:47:15;;;;;;;10.43;1.48;;;13.00;98.40;;;11.14;49.87;99634.56;4957777;28;20030;-76
2022/04/09 08:49:46;;;;;;;10.27;1.77;;;11.70;98.40;;;9.62;52.17;99623.09;4903522;28;20611;-76
2022/04/09 08:52:15;;;;;;;9.40;1.77;;;11.40;99.90;;;10.50;54.54;99636.97;4913284;28;21458;-76
2022/04/09 08:54:43;;;;;;;7.95;1.65;;;11.70;99.90;;;10.71;53.42;99634.72;4903802;28;20495;-77
2022/04/09 08:57:11;;;;;;;14.00;2.35;;;11.80;99.90;;;11.05;52.99;99638.66;4907426;28;20034;-78
2022/04/09 08:59:37;;;;;;;9.07;1.80;;;12.20;99.90;;;12.12;52.58;99634.97;4880523;28;20027;-78
2022/04/09 09:02:05;;;;;;;13.95;1.70;;;12.80;99.90;;;12.81;51.35;99640.56;4889626;28;20108;-77
2022/04/09 09:04:34;;;;;;;10.43;1.67;;;13.00;99.90;;;12.42;50.58;99637.22;4901324;28;20042;-78
2022/04/09 09:07:24;;;;;;;7.88;1.80;;;13.20;99.90;;;12.57;50.77;99647.63;4944506;28;20050;-78
2022/04/09 09:09:55;;;;;;;13.65;2.47;;;13.10;99.70;;;11.83;50.96;99642.22;4892312;28;20034;-77
2022/04/09 09:12:39;;;;;;;10.80;1.35;;;12.90;99.90;;;11.69;51.72;99656.38;4868658;28;20048;-78
2022/04/09 09:15:08;;;;;;;12.43;1.85;;;12.60;99.90;;;11.32;52.29;99664.13;4888568;28;20041;-77
2022/04/09 09:17:40;;;;;;;12.20;1.30;;;12.20;99.90;;;10.97;53.75;99654.13;4880889;28;20030;-77
2022/04/09 09:20:15;;;;;;;10.60;1.40;;;12.20;99.90;;;11.28;54.73;99647.66;4913760;28;20047;-78
2022/04/09 09:22:43;;;;;;;10.60;1.70;;;12.30;99.90;;;11.48;55.10;99656.03;4846102;28;20027;-76
2022/04/09 09:25:11;;;;;;;13.40;1.70;;;12.20;99.90;;;10.95;55.50;99663.06;4887501;28;20345;-77
2022/04/09 09:27:40;;;;;;;10.60;1.30;;;11.90;99.90;;;10.36;55.38;99656.25;4874338;28;20054;-78
2022/04/09 09:30:16;;;;;;;8.25;1.42;;;10.90;99.90;;;8.83;58.30;99666.19;4891803;28;20076;-78
2022/04/09 09:32:42;;;;;;;7.37;1.53;;;10.60;99.90;;;9.04;60.44;99677.25;4867658;28;20687;-76
2022/04/09 09:35:13;;;;;;;5.47;1.27;;;10.60;99.90;;;9.34;61.38;99689.56;4877488;28;20030;-78
2022/04/09 09:37:39;;;;;;;7.45;1.13;;;10.70;99.90;;;9.88;63.14;99687.22;4872060;28;20554;-76
2022/04/09 09:40:09;;;;;;;8.52;1.30;;;10.90;99.90;;;10.04;60.01;99666.97;4909471;28;20034;-77
2022/04/09 09:42:35;;;;;;;6.93;1.30;;;11.10;99.90;;;10.22;59.95;99670.25;4916605;28;20042;-77
2022/04/09 09:45:07;;;;;;;7.72;0.95;;;11.00;99.90;;;9.82;58.25;99677.91;4902628;28;20439;-77
2022/04/09 09:47:36;;;;;;;15.95;2.13;;;10.80;99.90;;;9.31;58.19;99684.47;4930169;28;20118;-76
2022/04/09 09:50:10;;;;;;;4.88;1.05;;;10.30;99.90;;;8.58;59.28;99692.94;4887349;28;20019;-77
2022/04/09 09:52:36;;;;;;;7.22;1.10;;;10.10;99.90;;;8.58;60.59;99692.94;4886319;28;20025;-79
2022/04/09 09:55:13;;;;;;;4.47;0.90;;;10.10;99.90;;;8.88;60.92;99686.94;4941492;28;20062;-76
2022/04/09 09:57:40;;;;;;;4.88;0.80;;;10.20;99.90;;;9.20;61.80;99685.97;4903909;28;20042;-78
2022/04/09 10:00:22;;;;;;;15.07;1.70;;;10.50;99.90;;;9.75;62.30;99704.69;4916233;28;20477;-78
2022/04/09 10:02:49;;;;;;;11.13;1.63;;;10.90;99.90;;;10.16;59.36;99696.09;4949943;28;20031;-79
2022/04/09 10:05:26;;;;;;;9.50;1.35;;;11.10;99.90;;;10.54;58.88;99698.13;4911534;28;20511;-78
2022/04/09 10:07:53;;;;;;;7.40;1.30;;;11.50;99.90;;;10.93;59.24;99699.19;4901946;28;20066;-77
2022/04/09 10:10:22;;;;;;;12.85;1.15;;;11.60;99.90;;;10.78;56.23;99691.34;4906635;28;20035;-78
2022/04/09 10:12:57;;;;;;;6.60;1.27;;;11.40;99.90;;;10.11;56.60;99695.50;4917063;28;20122;-77
2022/04/09 10:15:29;;;;;;;6.05;0.90;;;10.80;99.90;;;9.08;57.15;99699.78;4877493;28;20699;-77
2022/04/09 10:18:00;;;;;;;12.45;1.60;;;10.50;99.90;;;8.99;59.07;99709.03;4898392;28;20032;-79
2022/04/09 10:20:35;;;;;;;6.70;1.30;;;10.60;99.90;;;9.48;59.99;99701.88;4924508;28;20377;-79
2022/04/09 10:23:05;;;;;;;2.97;0.82;;;10.50;99.90;;;9.09;57.76;99685.69;4863812;28;20030;-78
2022/04/09 10:25:36;;;;;;;6.57;1.10;;;10.40;99.90;;;9.19;59.33;99707.88;4869024;28;20042;-78
2022/04/09 10:28:04;;;;;;;9.38;1.55;;;10.60;99.90;;;9.81;60.23;99717.47;4899174;28;20064;-77
2022/04/09 10:30:43;;;;;;;4.72;1.25;;;10.90;99.90;;;10.31;59.79;99718.00;4917588;28;20027;-77
2022/04/09 10:33:28;;;;;;;10.63;1.58;;;11.20;99.90;;;10.21;57.61;99721.16;4894224;28;20048;-78